sensor_id;sensor_type;location;lat;lon;timestamp;P1;durP1;ratioP1;P2;durP2;ratioP2
6695;SDS011;3385;48.928;10.330;2022-08-19T00:00:45;1.10;;;1.10;;
6695;SDS011;3385;48.928;10.330;2022-08-19T00:03:11;1.50;;;1.40;;
6695;SDS011;3385;48.928;10.330;2022-08-19T00:05:38;1.40;;;1.30;;
6695;SDS011;3385;48.928;10.330;2022-08-19T00:08:07;1.70;;;1.48;;
6695;SDS011;3385;48.928;10.330;2022-08-19T00:10:33;1.60;;;1.50;;
6695;SDS011;3385;48.928;10.330;2022-08-19T00:12:59;1.70;;;1.60;;
6695;SDS011;3385;48.928;10.330;2022-08-19T00:15:25;1.67;;;1.58;;
6695;SDS011;3385;48.928;10.330;2022-08-19T00:17:51;1.70;;;1.60;;
6695;SDS011;3385;48.928;10.330;2022-08-19T00:20:18;1.80;;;1.70;;
6695;SDS011;3385;48.928;10.330;2022-08-19T00:22:45;1.75;;;1.65;;
6695;SDS011;3385;48.928;10.330;2022-08-19T00:25:12;1.90;;;1.80;;
6695;SDS011;3385;48.928;10.330;2022-08-19T00:27:39;2.13;;;1.77;;
6695;SDS011;3385;48.928;10.330;2022-08-19T00:30:05;1.70;;;1.60;;
6695;SDS011;3385;48.928;10.330;2022-08-19T00:32:32;1.90;;;1.80;;
6695;SDS011;3385;48.928;10.330;2022-08-19T00:34:59;1.70;;;1.60;;
6695;SDS011;3385;48.928;10.330;2022-08-19T00:37:26;1.58;;;1.48;;
6695;SDS011;3385;48.928;10.330;2022-08-19T00:39:52;1.60;;;1.50;;
6695;SDS011;3385;48.928;10.330;2022-08-19T00:42:19;1.80;;;1.70;;
6695;SDS011;3385;48.928;10.330;2022-08-19T00:44:46;1.75;;;1.65;;
6695;SDS011;3385;48.928;10.330;2022-08-19T00:47:12;1.70;;;1.60;;
6695;SDS011;3385;48.928;10.330;2022-08-19T00:49:49;1.70;;;1.60;;
6695;SDS011;3385;48.928;10.330;2022-08-19T00:52:24;1.80;;;1.70;;
6695;SDS011;3385;48.928;10.330;2022-08-19T00:54:57;1.67;;;1.58;;
6695;SDS011;3385;48.928;10.330;2022-08-19T00:57:29;1.80;;;1.70;;
6695;SDS011;3385;48.928;10.330;2022-08-19T00:59:59;1.73;;;1.63;;
6695;SDS011;3385;48.928;10.330;2022-08-19T01:02:27;1.75;;;1.65;;
6695;SDS011;3385;48.928;10.330;2022-08-19T01:04:54;1.80;;;1.70;;
6695;SDS011;3385;48.928;10.330;2022-08-19T01:07:21;1.70;;;1.60;;
6695;SDS011;3385;48.928;10.330;2022-08-19T01:09:47;1.70;;;1.60;;
6695;SDS011;3385;48.928;10.330;2022-08-19T01:12:13;1.70;;;1.60;;
6695;SDS011;3385;48.928;10.330;2022-08-19T01:14:39;1.60;;;1.50;;
6695;SDS011;3385;48.928;10.330;2022-08-19T01:17:06;1.50;;;1.40;;
6695;SDS011;3385;48.928;10.330;2022-08-19T01:19:35;1.60;;;1.50;;
6695;SDS011;3385;48.928;10.330;2022-08-19T01:22:06;1.40;;;1.30;;
6695;SDS011;3385;48.928;10.330;2022-08-19T01:24:44;1.63;;;1.42;;
6695;SDS011;3385;48.928;10.330;2022-08-19T01:27:10;1.10;;;1.10;;
6695;SDS011;3385;48.928;10.330;2022-08-19T01:29:37;1.00;;;1.00;;
6695;SDS011;3385;48.928;10.330;2022-08-19T01:32:04;1.00;;;1.00;;
6695;SDS011;3385;48.928;10.330;2022-08-19T01:34:31;0.93;;;0.93;;
6695;SDS011;3385;48.928;10.330;2022-08-19T01:36:57;0.80;;;0.80;;
6695;SDS011;3385;48.928;10.330;2022-08-19T01:39:23;0.60;;;0.60;;
6695;SDS011;3385;48.928;10.330;2022-08-19T01:41:50;0.82;;;0.60;;
6695;SDS011;3385;48.928;10.330;2022-08-19T01:44:17;0.60;;;0.60;;
6695;SDS011;3385;48.928;10.330;2022-08-19T01:46:46;0.50;;;0.50;;
6695;SDS011;3385;48.928;10.330;2022-08-19T01:49:13;0.57;;;0.57;;
6695;SDS011;3385;48.928;10.330;2022-08-19T01:51:40;0.40;;;0.40;;
6695;SDS011;3385;48.928;10.330;2022-08-19T01:54:06;0.50;;;0.50;;
6695;SDS011;3385;48.928;10.330;2022-08-19T01:56:33;0.30;;;0.30;;
6695;SDS011;3385;48.928;10.330;2022-08-19T01:59:03;0.20;;;0.20;;
6695;SDS011;3385;48.928;10.330;2022-08-19T02:01:33;0.40;;;0.40;;
6695;SDS011;3385;48.928;10.330;2022-08-19T02:03:59;0.20;;;0.20;;
6695;SDS011;3385;48.928;10.330;2022-08-19T02:06:28;0.20;;;0.20;;
6695;SDS011;3385;48.928;10.330;2022-08-19T02:08:55;0.20;;;0.17;;
6695;SDS011;3385;48.928;10.330;2022-08-19T02:11:22;0.22;;;0.22;;
6695;SDS011;3385;48.928;10.330;2022-08-19T02:13:54;0.17;;;0.17;;
6695;SDS011;3385;48.928;10.330;2022-08-19T02:16:20;0.10;;;0.10;;
6695;SDS011;3385;48.928;10.330;2022-08-19T02:18:46;0.20;;;0.20;;
6695;SDS011;3385;48.928;10.330;2022-08-19T02:21:19;0.20;;;0.20;;
6695;SDS011;3385;48.928;10.330;2022-08-19T02:23:46;0.20;;;0.20;;
6695;SDS011;3385;48.928;10.330;2022-08-19T02:26:14;0.20;;;0.20;;
6695;SDS011;3385;48.928;10.330;2022-08-19T02:28:40;0.10;;;0.10;;
6695;SDS011;3385;48.928;10.330;2022-08-19T02:31:17;0.10;;;0.10;;
6695;SDS011;3385;48.928;10.330;2022-08-19T02:33:46;0.20;;;0.20;;
6695;SDS011;3385;48.928;10.330;2022-08-19T02:36:13;0.10;;;0.10;;
6695;SDS011;3385;48.928;10.330;2022-08-19T02:38:40;0.20;;;0.20;;
6695;SDS011;3385;48.928;10.330;2022-08-19T02:41:28;0.75;;;0.30;;
6695;SDS011;3385;48.928;10.330;2022-08-19T02:43:56;0.10;;;0.10;;
6695;SDS011;3385;48.928;10.330;2022-08-19T02:46:25;0.10;;;0.10;;
6695;SDS011;3385;48.928;10.330;2022-08-19T02:48:54;0.05;;;0.05;;
6695;SDS011;3385;48.928;10.330;2022-08-19T02:51:24;0.10;;;0.10;;
6695;SDS011;3385;48.928;10.330;2022-08-19T02:53:52;0.10;;;0.10;;
6695;SDS011;3385;48.928;10.330;2022-08-19T02:56:19;0.10;;;0.10;;
6695;SDS011;3385;48.928;10.330;2022-08-19T02:58:45;0.10;;;0.10;;
6695;SDS011;3385;48.928;10.330;2022-08-19T03:01:19;0.10;;;0.10;;
6695;SDS011;3385;48.928;10.330;2022-08-19T03:03:53;0.10;;;0.10;;
6695;SDS011;3385;48.928;10.330;2022-08-19T03:06:20;0.15;;;0.15;;
6695;SDS011;3385;48.928;10.330;2022-08-19T03:08:47;0.10;;;0.10;;
6695;SDS011;3385;48.928;10.330;2022-08-19T03:11:24;0.10;;;0.08;;
6695;SDS011;3385;48.928;10.330;2022-08-19T03:13:52;0.10;;;0.10;;
6695;SDS011;3385;48.928;10.330;2022-08-19T03:16:20;0.20;;;0.20;;
6695;SDS011;3385;48.928;10.330;2022-08-19T03:18:47;0.10;;;0.10;;
6695;SDS011;3385;48.928;10.330;2022-08-19T03:21:15;0.10;;;0.10;;
6695;SDS011;3385;48.928;10.330;2022-08-19T03:23:55;0.10;;;0.10;;
6695;SDS011;3385;48.928;10.330;2022-08-19T03:26:22;0.10;;;0.10;;
6695;SDS011;3385;48.928;10.330;2022-08-19T03:28:49;0.10;;;0.10;;
6695;SDS011;3385;48.928;10.330;2022-08-19T03:31:15;0.10;;;0.10;;
6695;SDS011;3385;48.928;10.330;2022-08-19T03:33:44;0.10;;;0.10;;
6695;SDS011;3385;48.928;10.330;2022-08-19T03:36:12;0.10;;;0.10;;
6695;SDS011;3385;48.928;10.330;2022-08-19T03:38:41;0.10;;;0.10;;
6695;SDS011;3385;48.928;10.330;2022-08-19T03:41:10;0.10;;;0.10;;
6695;SDS011;3385;48.928;10.330;2022-08-19T03:43:39;0.10;;;0.10;;
6695;SDS011;3385;48.928;10.330;2022-08-19T03:46:07;0.30;;;0.20;;
6695;SDS011;3385;48.928;10.330;2022-08-19T03:48:38;0.15;;;0.10;;
6695;SDS011;3385;48.928;10.330;2022-08-19T03:51:05;0.10;;;0.10;;
6695;SDS011;3385;48.928;10.330;2022-08-19T03:53:33;0.10;;;0.10;;
6695;SDS011;3385;48.928;10.330;2022-08-19T03:55:59;0.10;;;0.10;;
6695;SDS011;3385;48.928;10.330;2022-08-19T03:58:25;0.10;;;0.10;;
6695;SDS011;3385;48.928;10.330;2022-08-19T04:00:54;0.10;;;0.10;;
6695;SDS011;3385;48.928;10.330;2022-08-19T04:03:23;0.10;;;0.10;;
6695;SDS011;3385;48.928;10.330;2022-08-19T04:05:51;0.10;;;0.10;;
6695;SDS011;3385;48.928;10.330;2022-08-19T04:08:18;0.10;;;0.10;;
6695;SDS011;3385;48.928;10.330;2022-08-19T04:10:47;0.10;;;0.10;;
6695;SDS011;3385;48.928;10.330;2022-08-19T04:13:14;0.10;;;0.10;;
6695;SDS011;3385;48.928;10.330;2022-08-19T04:15:41;0.10;;;0.10;;
6695;SDS011;3385;48.928;10.330;2022-08-19T04:18:08;0.10;;;0.10;;
6695;SDS011;3385;48.928;10.330;2022-08-19T04:20:45;0.10;;;0.10;;
6695;SDS011;3385;48.928;10.330;2022-08-19T04:23:12;0.10;;;0.10;;
6695;SDS011;3385;48.928;10.330;2022-08-19T04:25:41;0.10;;;0.10;;
6695;SDS011;3385;48.928;10.330;2022-08-19T04:28:09;0.10;;;0.10;;
6695;SDS011;3385;48.928;10.330;2022-08-19T04:30:40;0.10;;;0.10;;
6695;SDS011;3385;48.928;10.330;2022-08-19T04:33:07;0.10;;;0.10;;
6695;SDS011;3385;48.928;10.330;2022-08-19T04:35:41;0.10;;;0.10;;
6695;SDS011;3385;48.928;10.330;2022-08-19T04:38:09;0.10;;;0.10;;
6695;SDS011;3385;48.928;10.330;2022-08-19T04:40:46;0.13;;;0.13;;
6695;SDS011;3385;48.928;10.330;2022-08-19T04:43:31;0.20;;;0.20;;
6695;SDS011;3385;48.928;10.330;2022-08-19T04:45:58;0.15;;;0.15;;
6695;SDS011;3385;48.928;10.330;2022-08-19T04:48:30;0.10;;;0.10;;
6695;SDS011;3385;48.928;10.330;2022-08-19T04:50:57;0.10;;;0.10;;
6695;SDS011;3385;48.928;10.330;2022-08-19T04:53:31;0.20;;;0.20;;
6695;SDS011;3385;48.928;10.330;2022-08-19T04:55:58;0.10;;;0.10;;
6695;SDS011;3385;48.928;10.330;2022-08-19T04:58:28;0.13;;;0.13;;
6695;SDS011;3385;48.928;10.330;2022-08-19T05:00:54;0.20;;;0.20;;
6695;SDS011;3385;48.928;10.330;2022-08-19T05:03:20;0.20;;;0.20;;
6695;SDS011;3385;48.928;10.330;2022-08-19T05:05:47;0.20;;;0.20;;
6695;SDS011;3385;48.928;10.330;2022-08-19T05:08:14;0.30;;;0.30;;
6695;SDS011;3385;48.928;10.330;2022-08-19T05:10:49;0.30;;;0.30;;
6695;SDS011;3385;48.928;10.330;2022-08-19T05:13:17;0.30;;;0.30;;
6695;SDS011;3385;48.928;10.330;2022-08-19T05:15:43;0.30;;;0.30;;
6695;SDS011;3385;48.928;10.330;2022-08-19T05:18:18;0.30;;;0.30;;
6695;SDS011;3385;48.928;10.330;2022-08-19T05:21:05;0.30;;;0.30;;
6695;SDS011;3385;48.928;10.330;2022-08-19T05:23:57;0.30;;;0.30;;
6695;SDS011;3385;48.928;10.330;2022-08-19T05:26:24;0.40;;;0.40;;
6695;SDS011;3385;48.928;10.330;2022-08-19T05:28:53;0.50;;;0.50;;
6695;SDS011;3385;48.928;10.330;2022-08-19T05:31:20;0.40;;;0.40;;
6695;SDS011;3385;48.928;10.330;2022-08-19T05:33:46;0.57;;;0.57;;
6695;SDS011;3385;48.928;10.330;2022-08-19T05:36:12;0.40;;;0.40;;
6695;SDS011;3385;48.928;10.330;2022-08-19T05:38:39;0.50;;;0.50;;
6695;SDS011;3385;48.928;10.330;2022-08-19T05:41:12;0.60;;;0.60;;
6695;SDS011;3385;48.928;10.330;2022-08-19T05:43:40;0.50;;;0.50;;
6695;SDS011;3385;48.928;10.330;2022-08-19T05:46:06;0.50;;;0.50;;
6695;SDS011;3385;48.928;10.330;2022-08-19T05:48:34;0.75;;;0.70;;
6695;SDS011;3385;48.928;10.330;2022-08-19T05:51:04;0.60;;;0.60;;
6695;SDS011;3385;48.928;10.330;2022-08-19T05:53:31;0.70;;;0.70;;
6695;SDS011;3385;48.928;10.330;2022-08-19T05:56:02;0.75;;;0.75;;
6695;SDS011;3385;48.928;10.330;2022-08-19T05:58:29;1.35;;;0.95;;
6695;SDS011;3385;48.928;10.330;2022-08-19T06:00:57;0.95;;;0.95;;
6695;SDS011;3385;48.928;10.330;2022-08-19T06:03:23;0.80;;;0.80;;
6695;SDS011;3385;48.928;10.330;2022-08-19T06:05:49;0.98;;;0.90;;
6695;SDS011;3385;48.928;10.330;2022-08-19T06:08:14;0.90;;;0.90;;
6695;SDS011;3385;48.928;10.330;2022-08-19T06:10:43;0.93;;;0.93;;
6695;SDS011;3385;48.928;10.330;2022-08-19T06:13:08;1.17;;;0.90;;
6695;SDS011;3385;48.928;10.330;2022-08-19T06:15:34;0.90;;;0.90;;
6695;SDS011;3385;48.928;10.330;2022-08-19T06:18:00;1.00;;;1.00;;
6695;SDS011;3385;48.928;10.330;2022-08-19T06:20:26;1.02;;;1.02;;
6695;SDS011;3385;48.928;10.330;2022-08-19T06:22:51;0.90;;;0.90;;
6695;SDS011;3385;48.928;10.330;2022-08-19T06:25:17;1.00;;;1.00;;
6695;SDS011;3385;48.928;10.330;2022-08-19T06:27:43;1.00;;;1.00;;
6695;SDS011;3385;48.928;10.330;2022-08-19T06:30:10;1.00;;;1.00;;
6695;SDS011;3385;48.928;10.330;2022-08-19T06:32:37;1.10;;;1.02;;
6695;SDS011;3385;48.928;10.330;2022-08-19T06:35:03;1.20;;;1.10;;
6695;SDS011;3385;48.928;10.330;2022-08-19T06:37:29;1.10;;;1.10;;
6695;SDS011;3385;48.928;10.330;2022-08-19T06:39:55;1.10;;;1.10;;
6695;SDS011;3385;48.928;10.330;2022-08-19T06:42:21;1.02;;;1.02;;
6695;SDS011;3385;48.928;10.330;2022-08-19T06:44:47;0.90;;;0.90;;
6695;SDS011;3385;48.928;10.330;2022-08-19T06:47:16;1.10;;;1.10;;
6695;SDS011;3385;48.928;10.330;2022-08-19T06:49:43;0.90;;;0.90;;
6695;SDS011;3385;48.928;10.330;2022-08-19T06:52:09;0.98;;;0.98;;
6695;SDS011;3385;48.928;10.330;2022-08-19T06:54:39;1.20;;;1.10;;
6695;SDS011;3385;48.928;10.330;2022-08-19T06:57:07;1.02;;;1.02;;
6695;SDS011;3385;48.928;10.330;2022-08-19T06:59:38;1.20;;;1.10;;
6695;SDS011;3385;48.928;10.330;2022-08-19T07:02:05;1.20;;;1.10;;
6695;SDS011;3385;48.928;10.330;2022-08-19T07:04:32;1.20;;;1.10;;
6695;SDS011;3385;48.928;10.330;2022-08-19T07:07:03;1.35;;;1.25;;
6695;SDS011;3385;48.928;10.330;2022-08-19T07:09:32;1.20;;;1.10;;
6695;SDS011;3385;48.928;10.330;2022-08-19T07:11:58;1.52;;;1.30;;
6695;SDS011;3385;48.928;10.330;2022-08-19T07:14:24;1.50;;;1.40;;
6695;SDS011;3385;48.928;10.330;2022-08-19T07:16:52;1.40;;;1.30;;
6695;SDS011;3385;48.928;10.330;2022-08-19T07:19:21;1.60;;;1.50;;
6695;SDS011;3385;48.928;10.330;2022-08-19T07:21:51;1.50;;;1.40;;
6695;SDS011;3385;48.928;10.330;2022-08-19T07:24:18;1.55;;;1.45;;
6695;SDS011;3385;48.928;10.330;2022-08-19T07:26:52;1.60;;;1.50;;
6695;SDS011;3385;48.928;10.330;2022-08-19T07:29:19;1.75;;;1.65;;
6695;SDS011;3385;48.928;10.330;2022-08-19T07:31:48;1.70;;;1.60;;
6695;SDS011;3385;48.928;10.330;2022-08-19T07:34:14;1.60;;;1.50;;
6695;SDS011;3385;48.928;10.330;2022-08-19T07:36:41;1.80;;;1.70;;
6695;SDS011;3385;48.928;10.330;2022-08-19T07:39:09;1.73;;;1.63;;
6695;SDS011;3385;48.928;10.330;2022-08-19T07:41:38;1.80;;;1.70;;
6695;SDS011;3385;48.928;10.330;2022-08-19T07:44:05;1.85;;;1.73;;
6695;SDS011;3385;48.928;10.330;2022-08-19T07:46:33;1.95;;;1.75;;
6695;SDS011;3385;48.928;10.330;2022-08-19T07:49:02;1.80;;;1.70;;
6695;SDS011;3385;48.928;10.330;2022-08-19T07:51:28;1.80;;;1.70;;
6695;SDS011;3385;48.928;10.330;2022-08-19T07:53:54;1.75;;;1.65;;
6695;SDS011;3385;48.928;10.330;2022-08-19T07:56:21;1.70;;;1.60;;
6695;SDS011;3385;48.928;10.330;2022-08-19T07:58:48;1.80;;;1.70;;
6695;SDS011;3385;48.928;10.330;2022-08-19T08:01:17;1.88;;;1.77;;
6695;SDS011;3385;48.928;10.330;2022-08-19T08:03:46;1.80;;;1.70;;
6695;SDS011;3385;48.928;10.330;2022-08-19T08:06:31;1.90;;;1.80;;
6695;SDS011;3385;48.928;10.330;2022-08-19T08:09:18;1.70;;;1.60;;
6695;SDS011;3385;48.928;10.330;2022-08-19T08:14:28;1.90;;;1.80;;
6695;SDS011;3385;48.928;10.330;2022-08-19T08:16:56;1.80;;;1.70;;
6695;SDS011;3385;48.928;10.330;2022-08-19T08:19:23;1.63;;;1.52;;
6695;SDS011;3385;48.928;10.330;2022-08-19T08:21:50;1.80;;;1.70;;
6695;SDS011;3385;48.928;10.330;2022-08-19T08:24:16;1.90;;;1.80;;
6695;SDS011;3385;48.928;10.330;2022-08-19T08:26:43;2.53;;;2.33;;
6695;SDS011;3385;48.928;10.330;2022-08-19T08:29:12;2.70;;;2.40;;
6695;SDS011;3385;48.928;10.330;2022-08-19T08:31:41;2.67;;;2.47;;
6695;SDS011;3385;48.928;10.330;2022-08-19T08:34:08;2.97;;;2.72;;
6695;SDS011;3385;48.928;10.330;2022-08-19T08:36:36;2.88;;;2.67;;
6695;SDS011;3385;48.928;10.330;2022-08-19T08:39:10;3.00;;;2.80;;
6695;SDS011;3385;48.928;10.330;2022-08-19T08:41:56;3.42;;;3.15;;
6695;SDS011;3385;48.928;10.330;2022-08-19T08:44:38;3.50;;;3.20;;
6695;SDS011;3385;48.928;10.330;2022-08-19T08:47:15;4.05;;;3.40;;
6695;SDS011;3385;48.928;10.330;2022-08-19T08:49:48;3.50;;;3.20;;
6695;SDS011;3385;48.928;10.330;2022-08-19T08:52:26;3.80;;;3.50;;
6695;SDS011;3385;48.928;10.330;2022-08-19T08:55:03;3.75;;;3.45;;
6695;SDS011;3385;48.928;10.330;2022-08-19T08:57:37;3.97;;;3.58;;
6695;SDS011;3385;48.928;10.330;2022-08-19T09:03:21;3.60;;;3.30;;
6695;SDS011;3385;48.928;10.330;2022-08-19T09:14:15;3.70;;;3.40;;
6695;SDS011;3385;48.928;10.330;2022-08-19T09:17:03;3.70;;;3.40;;
6695;SDS011;3385;48.928;10.330;2022-08-19T09:19:32;3.90;;;3.35;;
6695;SDS011;3385;48.928;10.330;2022-08-19T09:21:59;3.75;;;3.10;;
6695;SDS011;3385;48.928;10.330;2022-08-19T09:24:25;2.97;;;2.78;;
6695;SDS011;3385;48.928;10.330;2022-08-19T09:26:51;2.30;;;2.20;;
6695;SDS011;3385;48.928;10.330;2022-08-19T09:29:17;2.30;;;2.10;;
6695;SDS011;3385;48.928;10.330;2022-08-19T09:31:43;2.20;;;2.00;;
6695;SDS011;3385;48.928;10.330;2022-08-19T09:34:09;1.70;;;1.60;;
6695;SDS011;3385;48.928;10.330;2022-08-19T09:36:34;1.33;;;1.23;;
6695;SDS011;3385;48.928;10.330;2022-08-19T09:39:04;1.27;;;1.17;;
6695;SDS011;3385;48.928;10.330;2022-08-19T09:41:30;1.08;;;1.08;;
6695;SDS011;3385;48.928;10.330;2022-08-19T09:43:57;1.20;;;1.10;;
6695;SDS011;3385;48.928;10.330;2022-08-19T09:46:25;1.30;;;1.17;;
6695;SDS011;3385;48.928;10.330;2022-08-19T09:48:53;1.30;;;1.20;;
6695;SDS011;3385;48.928;10.330;2022-08-19T09:51:20;1.40;;;1.30;;
6695;SDS011;3385;48.928;10.330;2022-08-19T09:53:48;2.03;;;1.45;;
6695;SDS011;3385;48.928;10.330;2022-08-19T09:56:15;1.50;;;1.40;;
6695;SDS011;3385;48.928;10.330;2022-08-19T09:58:43;1.35;;;1.25;;
6695;SDS011;3385;48.928;10.330;2022-08-19T10:01:14;1.38;;;1.27;;
6695;SDS011;3385;48.928;10.330;2022-08-19T10:03:47;1.50;;;1.40;;
6695;SDS011;3385;48.928;10.330;2022-08-19T10:06:14;1.70;;;1.60;;
6695;SDS011;3385;48.928;10.330;2022-08-19T10:08:43;1.70;;;1.60;;
6695;SDS011;3385;48.928;10.330;2022-08-19T10:11:10;1.80;;;1.70;;
6695;SDS011;3385;48.928;10.330;2022-08-19T10:13:36;1.70;;;1.60;;
6695;SDS011;3385;48.928;10.330;2022-08-19T10:16:06;1.90;;;1.80;;
6695;SDS011;3385;48.928;10.330;2022-08-19T10:18:34;2.25;;;2.00;;
6695;SDS011;3385;48.928;10.330;2022-08-19T10:21:05;2.42;;;2.22;;
6695;SDS011;3385;48.928;10.330;2022-08-19T10:23:33;3.25;;;2.60;;
6695;SDS011;3385;48.928;10.330;2022-08-19T10:26:01;2.47;;;2.20;;
6695;SDS011;3385;48.928;10.330;2022-08-19T10:28:30;2.10;;;2.00;;
6695;SDS011;3385;48.928;10.330;2022-08-19T10:30:56;1.90;;;1.80;;
6695;SDS011;3385;48.928;10.330;2022-08-19T10:33:22;2.05;;;1.90;;
6695;SDS011;3385;48.928;10.330;2022-08-19T10:35:51;1.90;;;1.80;;
6695;SDS011;3385;48.928;10.330;2022-08-19T10:38:24;2.10;;;2.00;;
6695;SDS011;3385;48.928;10.330;2022-08-19T10:40:50;2.47;;;2.28;;
6695;SDS011;3385;48.928;10.330;2022-08-19T10:43:18;2.28;;;2.08;;
6695;SDS011;3385;48.928;10.330;2022-08-19T10:45:48;2.40;;;2.20;;
6695;SDS011;3385;48.928;10.330;2022-08-19T10:48:16;2.38;;;2.17;;
6695;SDS011;3385;48.928;10.330;2022-08-19T10:50:42;2.20;;;2.10;;
6695;SDS011;3385;48.928;10.330;2022-08-19T10:53:26;2.30;;;2.20;;
6695;SDS011;3385;48.928;10.330;2022-08-19T10:55:52;2.33;;;2.20;;
6695;SDS011;3385;48.928;10.330;2022-08-19T10:58:36;2.30;;;2.10;;
6695;SDS011;3385;48.928;10.330;2022-08-19T11:01:02;1.88;;;1.77;;
6695;SDS011;3385;48.928;10.330;2022-08-19T11:03:27;2.00;;;1.90;;
6695;SDS011;3385;48.928;10.330;2022-08-19T11:06:01;1.90;;;1.80;;
6695;SDS011;3385;48.928;10.330;2022-08-19T11:08:29;2.08;;;1.88;;
6695;SDS011;3385;48.928;10.330;2022-08-19T11:10:58;1.88;;;1.77;;
6695;SDS011;3385;48.928;10.330;2022-08-19T11:13:25;1.70;;;1.60;;
6695;SDS011;3385;48.928;10.330;2022-08-19T11:15:59;1.80;;;1.70;;
6695;SDS011;3385;48.928;10.330;2022-08-19T11:18:27;1.80;;;1.70;;
6695;SDS011;3385;48.928;10.330;2022-08-19T11:20:53;1.75;;;1.65;;
6695;SDS011;3385;48.928;10.330;2022-08-19T11:23:19;1.80;;;1.70;;
6695;SDS011;3385;48.928;10.330;2022-08-19T11:25:45;1.80;;;1.70;;
6695;SDS011;3385;48.928;10.330;2022-08-19T11:28:11;1.67;;;1.58;;
6695;SDS011;3385;48.928;10.330;2022-08-19T11:30:38;1.60;;;1.50;;
6695;SDS011;3385;48.928;10.330;2022-08-19T11:33:04;2.17;;;1.50;;
6695;SDS011;3385;48.928;10.330;2022-08-19T11:35:30;1.60;;;1.50;;
6695;SDS011;3385;48.928;10.330;2022-08-19T11:37:56;1.30;;;1.20;;
6695;SDS011;3385;48.928;10.330;2022-08-19T11:40:26;1.30;;;1.20;;
6695;SDS011;3385;48.928;10.330;2022-08-19T11:42:52;0.60;;;0.60;;
6695;SDS011;3385;48.928;10.330;2022-08-19T11:45:22;0.98;;;0.80;;
6695;SDS011;3385;48.928;10.330;2022-08-19T11:47:50;0.57;;;0.57;;
6695;SDS011;3385;48.928;10.330;2022-08-19T11:50:16;0.00;;;0.00;;
6695;SDS011;3385;48.928;10.330;2022-08-19T11:52:42;0.00;;;0.00;;
6695;SDS011;3385;48.928;10.330;2022-08-19T11:55:10;0.00;;;0.00;;
6695;SDS011;3385;48.928;10.330;2022-08-19T11:57:36;0.00;;;0.00;;
6695;SDS011;3385;48.928;10.330;2022-08-19T12:00:03;0.00;;;0.00;;
6695;SDS011;3385;48.928;10.330;2022-08-19T12:02:31;0.00;;;0.00;;
6695;SDS011;3385;48.928;10.330;2022-08-19T12:04:58;0.00;;;0.00;;
6695;SDS011;3385;48.928;10.330;2022-08-19T12:07:23;0.00;;;0.00;;
6695;SDS011;3385;48.928;10.330;2022-08-19T12:09:49;0.00;;;0.00;;
6695;SDS011;3385;48.928;10.330;2022-08-19T12:12:15;0.00;;;0.00;;
6695;SDS011;3385;48.928;10.330;2022-08-19T12:14:41;0.00;;;0.00;;
6695;SDS011;3385;48.928;10.330;2022-08-19T12:17:07;0.00;;;0.00;;
6695;SDS011;3385;48.928;10.330;2022-08-19T12:19:35;0.00;;;0.00;;
6695;SDS011;3385;48.928;10.330;2022-08-19T12:22:02;0.00;;;0.00;;
6695;SDS011;3385;48.928;10.330;2022-08-19T12:24:30;0.00;;;0.00;;
6695;SDS011;3385;48.928;10.330;2022-08-19T12:26:56;0.00;;;0.00;;
6695;SDS011;3385;48.928;10.330;2022-08-19T12:29:23;0.00;;;0.00;;
6695;SDS011;3385;48.928;10.330;2022-08-19T12:31:53;0.00;;;0.00;;
6695;SDS011;3385;48.928;10.330;2022-08-19T12:34:25;0.00;;;0.00;;
6695;SDS011;3385;48.928;10.330;2022-08-19T12:36:54;0.00;;;0.00;;
6695;SDS011;3385;48.928;10.330;2022-08-19T12:39:22;0.00;;;0.00;;
6695;SDS011;3385;48.928;10.330;2022-08-19T12:41:48;0.00;;;0.00;;
6695;SDS011;3385;48.928;10.330;2022-08-19T12:44:14;0.00;;;0.00;;
6695;SDS011;3385;48.928;10.330;2022-08-19T12:46:40;0.00;;;0.00;;
6695;SDS011;3385;48.928;10.330;2022-08-19T12:49:05;0.00;;;0.00;;
6695;SDS011;3385;48.928;10.330;2022-08-19T12:51:31;0.00;;;0.00;;
6695;SDS011;3385;48.928;10.330;2022-08-19T12:53:57;0.00;;;0.00;;
6695;SDS011;3385;48.928;10.330;2022-08-19T12:56:22;0.00;;;0.00;;
6695;SDS011;3385;48.928;10.330;2022-08-19T12:58:48;0.00;;;0.00;;
6695;SDS011;3385;48.928;10.330;2022-08-19T13:01:15;0.00;;;0.00;;
6695;SDS011;3385;48.928;10.330;2022-08-19T13:03:41;0.00;;;0.00;;
6695;SDS011;3385;48.928;10.330;2022-08-19T13:06:09;0.00;;;0.00;;
6695;SDS011;3385;48.928;10.330;2022-08-19T13:08:35;0.00;;;0.00;;
6695;SDS011;3385;48.928;10.330;2022-08-19T13:11:08;0.00;;;0.00;;
6695;SDS011;3385;48.928;10.330;2022-08-19T13:13:37;0.00;;;0.00;;
6695;SDS011;3385;48.928;10.330;2022-08-19T13:16:05;0.00;;;0.00;;
6695;SDS011;3385;48.928;10.330;2022-08-19T13:18:32;0.00;;;0.00;;
6695;SDS011;3385;48.928;10.330;2022-08-19T13:21:01;0.00;;;0.00;;
6695;SDS011;3385;48.928;10.330;2022-08-19T13:23:31;0.00;;;0.00;;
6695;SDS011;3385;48.928;10.330;2022-08-19T13:25:58;0.00;;;0.00;;
6695;SDS011;3385;48.928;10.330;2022-08-19T13:28:25;0.00;;;0.00;;
6695;SDS011;3385;48.928;10.330;2022-08-19T13:30:51;0.00;;;0.00;;
6695;SDS011;3385;48.928;10.330;2022-08-19T13:33:35;0.00;;;0.00;;
6695;SDS011;3385;48.928;10.330;2022-08-19T13:36:01;0.00;;;0.00;;
6695;SDS011;3385;48.928;10.330;2022-08-19T13:38:27;0.00;;;0.00;;
6695;SDS011;3385;48.928;10.330;2022-08-19T13:40:54;0.00;;;0.00;;
6695;SDS011;3385;48.928;10.330;2022-08-19T13:43:22;0.00;;;0.00;;
6695;SDS011;3385;48.928;10.330;2022-08-19T13:45:51;0.00;;;0.00;;
6695;SDS011;3385;48.928;10.330;2022-08-19T13:48:20;0.00;;;0.00;;
6695;SDS011;3385;48.928;10.330;2022-08-19T13:50:46;0.00;;;0.00;;
6695;SDS011;3385;48.928;10.330;2022-08-19T13:53:13;0.00;;;0.00;;
6695;SDS011;3385;48.928;10.330;2022-08-19T13:55:39;0.00;;;0.00;;
6695;SDS011;3385;48.928;10.330;2022-08-19T13:58:06;0.00;;;0.00;;
6695;SDS011;3385;48.928;10.330;2022-08-19T14:00:36;0.00;;;0.00;;
6695;SDS011;3385;48.928;10.330;2022-08-19T14:03:05;0.00;;;0.00;;
6695;SDS011;3385;48.928;10.330;2022-08-19T14:05:31;0.00;;;0.00;;
6695;SDS011;3385;48.928;10.330;2022-08-19T14:07:57;0.00;;;0.00;;
6695;SDS011;3385;48.928;10.330;2022-08-19T14:10:24;0.00;;;0.00;;
6695;SDS011;3385;48.928;10.330;2022-08-19T14:12:54;0.00;;;0.00;;
6695;SDS011;3385;48.928;10.330;2022-08-19T14:15:23;0.00;;;0.00;;
6695;SDS011;3385;48.928;10.330;2022-08-19T14:17:49;0.00;;;0.00;;
6695;SDS011;3385;48.928;10.330;2022-08-19T14:20:15;0.00;;;0.00;;
6695;SDS011;3385;48.928;10.330;2022-08-19T14:22:42;0.00;;;0.00;;
6695;SDS011;3385;48.928;10.330;2022-08-19T14:25:09;0.00;;;0.00;;
6695;SDS011;3385;48.928;10.330;2022-08-19T14:27:38;0.00;;;0.00;;
6695;SDS011;3385;48.928;10.330;2022-08-19T14:30:06;0.00;;;0.00;;
6695;SDS011;3385;48.928;10.330;2022-08-19T14:32:33;0.00;;;0.00;;
6695;SDS011;3385;48.928;10.330;2022-08-19T14:35:00;0.00;;;0.00;;
6695;SDS011;3385;48.928;10.330;2022-08-19T14:37:28;0.00;;;0.00;;
6695;SDS011;3385;48.928;10.330;2022-08-19T14:39:54;0.00;;;0.00;;
6695;SDS011;3385;48.928;10.330;2022-08-19T14:42:20;0.00;;;0.00;;
6695;SDS011;3385;48.928;10.330;2022-08-19T14:44:46;0.00;;;0.00;;
6695;SDS011;3385;48.928;10.330;2022-08-19T14:47:11;0.00;;;0.00;;
6695;SDS011;3385;48.928;10.330;2022-08-19T14:49:37;0.00;;;0.00;;
6695;SDS011;3385;48.928;10.330;2022-08-19T14:52:04;0.00;;;0.00;;
6695;SDS011;3385;48.928;10.330;2022-08-19T14:54:30;0.00;;;0.00;;
6695;SDS011;3385;48.928;10.330;2022-08-19T14:56:56;0.00;;;0.00;;
6695;SDS011;3385;48.928;10.330;2022-08-19T14:59:22;0.00;;;0.00;;
6695;SDS011;3385;48.928;10.330;2022-08-19T15:01:48;0.00;;;0.00;;
6695;SDS011;3385;48.928;10.330;2022-08-19T15:04:14;0.00;;;0.00;;
6695;SDS011;3385;48.928;10.330;2022-08-19T15:06:40;0.00;;;0.00;;
6695;SDS011;3385;48.928;10.330;2022-08-19T15:09:07;0.00;;;0.00;;
6695;SDS011;3385;48.928;10.330;2022-08-19T15:14:01;0.00;;;0.00;;
6695;SDS011;3385;48.928;10.330;2022-08-19T15:16:26;0.00;;;0.00;;
6695;SDS011;3385;48.928;10.330;2022-08-19T15:18:54;0.00;;;0.00;;
6695;SDS011;3385;48.928;10.330;2022-08-19T15:21:22;0.00;;;0.00;;
6695;SDS011;3385;48.928;10.330;2022-08-19T15:23:49;0.00;;;0.00;;